Time;durP1;ratioP1;P1;durP2;ratioP2;P2;SDS_P1;SDS_P2;PMS_P1;PMS_P2;Temp;Humidity;BMP_temperature;BMP_pressure;BME280_temperature;BME280_humidity;BME280_pressure;Samples;Min_cycle;Max_cycle;Signal;HPM_P1;HPM_P2
2021/10/16 00:00:39;;;;;;;12.35;3.80;;;;;;;;;;5072616;28;20056;-67
2021/10/16 00:03:25;;;;;;;15.60;5.32;;;;;;;;;;5072245;28;20057;-67
2021/10/16 00:06:10;;;;;;;12.13;3.75;;;;;;;;;;5072197;28;20562;-66
2021/10/16 00:08:55;;;;;;;17.80;4.13;;;;;;;;;;5072470;28;20040;-67
2021/10/16 00:11:41;;;;;;;13.73;3.92;;;;;;;;;;5072331;28;20388;-67
2021/10/16 00:14:26;;;;;;;12.63;4.22;;;;;;;;;;5071736;28;20064;-67
2021/10/16 00:17:12;;;;;;;12.57;4.43;;;;;;;;;;5070953;28;20549;-67
2021/10/16 00:19:57;;;;;;;16.25;4.25;;;;;;;;;;5072120;28;20088;-68
2021/10/16 00:22:42;;;;;;;13.15;4.47;;;;;;;;;;5072092;28;20127;-67
2021/10/16 00:25:27;;;;;;;12.35;4.25;;;;;;;;;;5070403;28;20052;-68
2021/10/16 00:28:12;;;;;;;19.63;5.85;;;;;;;;;;5072247;28;20056;-67
2021/10/16 00:30:59;;;;;;;18.17;6.50;;;;;;;;;;5071666;28;20053;-67
2021/10/16 00:33:44;;;;;;;14.88;5.95;;;;;;;;;;5071913;28;20056;-67
2021/10/16 00:36:31;;;;;;;19.15;6.13;;;;;;;;;;5072090;28;20049;-67
2021/10/16 00:39:16;;;;;;;18.27;6.25;;;;;;;;;;5070932;28;20048;-67
2021/10/16 00:42:01;;;;;;;21.40;5.97;;;;;;;;;;5072098;28;20056;-68
2021/10/16 00:44:46;;;;;;;16.25;4.43;;;;;;;;;;5070671;28;20048;-67
2021/10/16 00:47:32;;;;;;;15.30;4.55;;;;;;;;;;5056449;28;20052;-67
2021/10/16 00:50:17;;;;;;;12.65;3.83;;;;;;;;;;5070614;28;20123;-66
2021/10/16 00:53:02;;;;;;;15.93;4.70;;;;;;;;;;5070883;28;20045;-66
2021/10/16 00:55:49;;;;;;;14.77;4.35;;;;;;;;;;5071524;28;20048;-68
2021/10/16 00:58:35;;;;;;;18.10;4.80;;;;;;;;;;5071029;28;20053;-68
2021/10/16 01:01:21;;;;;;;12.05;5.13;;;;;;;;;;5056874;28;20057;-67
2021/10/16 01:04:06;;;;;;;14.90;4.45;;;;;;;;;;5070415;28;20052;-67
2021/10/16 01:06:56;;;;;;;12.50;4.15;;;;;;;;;;5070946;28;20052;-67
2021/10/16 01:09:44;;;;;;;11.30;4.45;;;;;;;;;;5071681;28;20048;-67
2021/10/16 01:12:30;;;;;;;10.90;4.57;;;;;;;;;;5070697;28;20097;-68
2021/10/16 01:15:18;;;;;;;14.95;5.65;;;;;;;;;;5070362;28;20053;-68
2021/10/16 01:18:04;;;;;;;13.45;5.07;;;;;;;;;;5070954;28;20061;-68
2021/10/16 01:20:55;;;;;;;13.43;4.65;;;;;;;;;;5071609;28;20061;-67
2021/10/16 01:23:40;;;;;;;21.95;5.68;;;;;;;;;;5056332;28;20056;-67
2021/10/16 01:26:27;;;;;;;14.50;5.82;;;;;;;;;;5056528;28;20115;-68
2021/10/16 01:29:14;;;;;;;26.00;5.85;;;;;;;;;;5070753;28;20045;-68
2021/10/16 01:32:01;;;;;;;15.57;5.80;;;;;;;;;;5056701;28;20121;-68
2021/10/16 01:34:46;;;;;;;12.85;5.47;;;;;;;;;;5069965;28;20469;-66
2021/10/16 01:37:31;;;;;;;13.07;5.78;;;;;;;;;;5056352;28;20053;-68
2021/10/16 01:40:18;;;;;;;14.23;5.40;;;;;;;;;;5070552;28;20061;-67
2021/10/16 01:43:04;;;;;;;15.05;5.30;;;;;;;;;;5071183;28;20139;-66
2021/10/16 01:45:53;;;;;;;15.32;5.72;;;;;;;;;;5073659;28;20056;-67
2021/10/16 01:48:41;;;;;;;14.52;5.60;;;;;;;;;;5074228;28;20084;-67
2021/10/16 01:51:27;;;;;;;14.77;5.63;;;;;;;;;;5073920;28;20048;-66
2021/10/16 01:54:12;;;;;;;15.55;5.93;;;;;;;;;;5073491;28;20052;-67
2021/10/16 01:57:02;;;;;;;20.35;6.25;;;;;;;;;;5073756;28;20049;-66
2021/10/16 01:59:49;;;;;;;20.38;7.10;;;;;;;;;;5073853;28;20052;-67
2021/10/16 02:02:40;;;;;;;14.45;5.75;;;;;;;;;;5074631;28;20056;-67
2021/10/16 02:05:46;;;;;;;13.63;5.90;;;;;;;;;;5073306;28;20052;-67
2021/10/16 02:08:52;;;;;;;21.60;7.88;;;;;;;;;;5073683;28;20083;-67
2021/10/16 02:11:38;;;;;;;13.60;5.78;;;;;;;;;;5073625;28;20123;-67
2021/10/16 02:14:23;;;;;;;15.27;5.13;;;;;;;;;;5073236;28;20052;-67
2021/10/16 02:17:11;;;;;;;13.00;5.40;;;;;;;;;;5073357;28;20083;-67
2021/10/16 02:19:57;;;;;;;14.68;5.60;;;;;;;;;;5073610;28;20052;-67
2021/10/16 02:22:42;;;;;;;14.68;5.18;;;;;;;;;;5074558;28;20041;-67
2021/10/16 02:25:27;;;;;;;13.70;5.75;;;;;;;;;;5071902;28;20060;-67
2021/10/16 02:28:13;;;;;;;14.05;5.53;;;;;;;;;;5072606;28;20071;-68
2021/10/16 02:31:06;;;;;;;;;;;;;;;;;;5073845;28;20049;-68
2021/10/16 02:33:53;;;;;;;9.02;4.88;;;;;;;;;;5072845;28;19920;-68
2021/10/16 02:36:41;;;;;;;14.52;7.03;;;;;;;;;;5072988;28;20509;-68
2021/10/16 02:39:27;;;;;;;18.80;6.82;;;;;;;;;;5073068;28;20052;-68
2021/10/16 02:42:13;;;;;;;13.60;5.88;;;;;;;;;;5072961;28;20053;-68
2021/10/16 02:44:58;;;;;;;11.30;4.82;;;;;;;;;;5072647;28;20124;-67
2021/10/16 02:47:43;;;;;;;14.32;6.22;;;;;;;;;;5072944;28;20057;-67
2021/10/16 02:50:28;;;;;;;10.23;5.55;;;;;;;;;;5072759;28;20045;-67
2021/10/16 02:53:14;;;;;;;18.60;5.78;;;;;;;;;;5074195;28;20293;-68
2021/10/16 02:55:59;;;;;;;14.82;6.65;;;;;;;;;;5071736;28;20128;-67
2021/10/16 02:58:44;;;;;;;11.52;5.03;;;;;;;;;;5072550;28;20052;-68
2021/10/16 03:01:30;;;;;;;12.63;5.65;;;;;;;;;;5073771;28;20119;-68
2021/10/16 03:04:15;;;;;;;15.32;6.55;;;;;;;;;;5057601;28;20064;-67
2021/10/16 03:07:03;;;;;;;12.63;5.20;;;;;;;;;;5072468;28;20049;-67
2021/10/16 03:09:56;;;;;;;15.88;6.65;;;;;;;;;;5072555;28;20048;-66
2021/10/16 03:12:42;;;;;;;16.33;7.20;;;;;;;;;;5073299;28;20056;-67
2021/10/16 03:15:27;;;;;;;13.93;5.53;;;;;;;;;;5073033;28;20127;-67
2021/10/16 03:18:13;;;;;;;12.63;5.47;;;;;;;;;;5072268;28;20048;-68
2021/10/16 03:21:00;;;;;;;13.45;6.13;;;;;;;;;;5072306;28;20408;-68
2021/10/16 03:23:45;;;;;;;11.70;5.38;;;;;;;;;;5071922;28;20056;-68
2021/10/16 03:26:30;;;;;;;17.67;7.30;;;;;;;;;;5072177;28;20049;-68
2021/10/16 03:29:15;;;;;;;15.00;6.18;;;;;;;;;;5072144;28;20053;-68
2021/10/16 03:32:00;;;;;;;16.85;6.57;;;;;;;;;;5071983;28;20481;-67
2021/10/16 03:34:45;;;;;;;19.38;7.88;;;;;;;;;;5071655;28;20048;-68
2021/10/16 03:37:30;;;;;;;19.67;7.82;;;;;;;;;;5072998;28;20048;-68
2021/10/16 03:40:16;;;;;;;17.75;8.63;;;;;;;;;;5072023;28;20049;-68
2021/10/16 03:43:01;;;;;;;14.90;5.88;;;;;;;;;;5071664;28;20053;-68
2021/10/16 03:45:47;;;;;;;8.23;5.45;;;;;;;;;;5071551;28;20048;-67
2021/10/16 03:48:35;;;;;;;16.08;6.10;;;;;;;;;;5071481;28;20499;-67
2021/10/16 03:51:21;;;;;;;13.15;5.57;;;;;;;;;;5072503;28;20056;-68
2021/10/16 03:54:06;;;;;;;12.60;5.25;;;;;;;;;;5071242;28;20503;-68
2021/10/16 03:56:51;;;;;;;14.50;6.00;;;;;;;;;;5071486;28;20052;-68
2021/10/16 03:59:41;;;;;;;17.30;5.45;;;;;;;;;;5071585;28;20123;-68
2021/10/16 04:02:27;;;;;;;13.02;5.50;;;;;;;;;;5071540;28;20048;-68
2021/10/16 04:05:13;;;;;;;9.77;4.32;;;;;;;;;;5071095;28;20446;-68
2021/10/16 04:07:59;;;;;;;10.98;5.13;;;;;;;;;;5072257;28;20052;-68
2021/10/16 04:10:45;;;;;;;15.13;5.75;;;;;;;;;;5071535;28;20411;-68
2021/10/16 04:13:30;;;;;;;12.27;4.90;;;;;;;;;;5071248;28;20052;-66
2021/10/16 04:16:16;;;;;;;15.02;5.63;;;;;;;;;;5070891;28;20048;-67
2021/10/16 04:19:01;;;;;;;21.17;8.32;;;;;;;;;;5071152;28;20502;-68
2021/10/16 04:21:46;;;;;;;11.60;4.60;;;;;;;;;;5071249;28;20053;-67
2021/10/16 04:24:31;;;;;;;14.77;6.03;;;;;;;;;;5056456;28;20400;-68
2021/10/16 04:27:17;;;;;;;14.45;5.18;;;;;;;;;;5071291;28;20052;-68
2021/10/16 04:30:12;;;;;;;11.75;5.47;;;;;;;;;;5071086;28;20052;-67
2021/10/16 04:32:59;;;;;;;11.98;5.85;;;;;;;;;;5071986;28;20045;-68
2021/10/16 04:35:44;;;;;;;11.43;4.82;;;;;;;;;;5071856;28;20060;-67
2021/10/16 04:38:31;;;;;;;17.45;6.07;;;;;;;;;;5072210;28;20056;-67
2021/10/16 04:41:16;;;;;;;17.65;5.57;;;;;;;;;;5072007;28;20052;-68
2021/10/16 04:44:02;;;;;;;13.82;6.22;;;;;;;;;;5070782;28;20056;-68
2021/10/16 04:46:47;;;;;;;10.15;5.38;;;;;;;;;;5070891;28;20052;-67
2021/10/16 04:49:34;;;;;;;13.43;4.93;;;;;;;;;;5070662;28;20053;-68
2021/10/16 04:52:20;;;;;;;10.82;5.95;;;;;;;;;;5071261;28;20053;-67
2021/10/16 04:55:07;;;;;;;13.75;6.05;;;;;;;;;;5070797;28;20139;-68
2021/10/16 04:57:52;;;;;;;14.10;5.35;;;;;;;;;;5070977;28;20052;-68
2021/10/16 05:00:40;;;;;;;11.95;4.70;;;;;;;;;;5070978;28;20056;-68
2021/10/16 05:03:29;;;;;;;15.82;5.97;;;;;;;;;;5070606;28;20044;-68
2021/10/16 05:06:15;;;;;;;15.07;7.45;;;;;;;;;;5070810;28;20044;-66
2021/10/16 05:09:00;;;;;;;13.15;6.80;;;;;;;;;;5070836;28;20052;-67
2021/10/16 05:11:49;;;;;;;19.30;7.95;;;;;;;;;;5057140;28;20045;-67
2021/10/16 05:14:36;;;;;;;13.18;7.50;;;;;;;;;;5111757;22;20049;-69
2021/10/16 05:17:22;;;;;;;16.85;7.32;;;;;;;;;;5057398;28;20441;-68
2021/10/16 05:20:08;;;;;;;14.00;7.40;;;;;;;;;;5045521;28;20088;-68
2021/10/16 05:23:02;;;;;;;13.70;6.18;;;;;;;;;;5061087;28;20057;-68
2021/10/16 05:25:47;;;;;;;12.48;5.57;;;;;;;;;;5049672;28;20049;-69
2021/10/16 05:28:32;;;;;;;10.20;5.85;;;;;;;;;;5041260;28;20050;-69
2021/10/16 05:31:17;;;;;;;15.00;5.13;;;;;;;;;;5041203;28;20084;-68
2021/10/16 05:34:02;;;;;;;13.77;5.35;;;;;;;;;;5041434;28;20053;-68
2021/10/16 05:36:47;;;;;;;13.93;5.55;;;;;;;;;;5035180;28;20053;-67
2021/10/16 05:39:33;;;;;;;13.93;5.47;;;;;;;;;;5034037;28;20240;-65
2021/10/16 05:42:19;;;;;;;13.80;6.05;;;;;;;;;;5020481;28;20128;-65
2021/10/16 05:45:06;;;;;;;14.07;5.20;;;;;;;;;;5033917;28;20065;-65
2021/10/16 05:47:51;;;;;;;17.00;6.18;;;;;;;;;;5033914;28;20085;-65
2021/10/16 05:50:37;;;;;;;14.77;6.93;;;;;;;;;;5034310;28;20407;-65
2021/10/16 05:53:25;;;;;;;11.25;5.13;;;;;;;;;;5033934;28;20049;-65
2021/10/16 05:56:10;;;;;;;18.25;5.63;;;;;;;;;;5033633;28;20057;-66
2021/10/16 05:58:58;;;;;;;15.93;6.13;;;;;;;;;;5034017;28;20061;-66
2021/10/16 06:01:44;;;;;;;15.60;5.43;;;;;;;;;;5033750;28;20443;-65
2021/10/16 06:04:29;;;;;;;11.77;5.30;;;;;;;;;;5034274;28;20064;-66
2021/10/16 06:07:14;;;;;;;15.95;6.40;;;;;;;;;;5033498;28;20049;-66
2021/10/16 06:10:02;;;;;;;17.00;5.40;;;;;;;;;;5018936;28;20051;-66
2021/10/16 06:12:47;;;;;;;11.52;5.40;;;;;;;;;;5033441;28;20511;-65
2021/10/16 06:15:34;;;;;;;13.52;5.65;;;;;;;;;;5033129;28;20053;-65
2021/10/16 06:18:20;;;;;;;10.98;5.28;;;;;;;;;;5019332;28;20136;-66
2021/10/16 06:21:05;;;;;;;10.00;5.00;;;;;;;;;;5047649;28;20057;-66
2021/10/16 06:23:52;;;;;;;13.02;5.32;;;;;;;;;;5033161;28;20474;-65
2021/10/16 06:26:57;;;;;;;14.93;5.00;;;;;;;;;;5034400;28;20457;-65
2021/10/16 06:29:42;;;;;;;17.92;5.63;;;;;;;;;;5032071;28;20062;-65
2021/10/16 06:32:28;;;;;;;15.82;6.97;;;;;;;;;;5033350;28;20124;-66
2021/10/16 06:35:14;;;;;;;14.55;4.93;;;;;;;;;;5032852;28;20499;-66
2021/10/16 06:38:00;;;;;;;11.95;4.45;;;;;;;;;;5018913;28;20061;-66
2021/10/16 06:40:45;;;;;;;10.75;4.25;;;;;;;;;;5033314;28;20475;-66
2021/10/16 06:43:50;;;;;;;10.82;4.57;;;;;;;;;;5033806;28;20053;-66
2021/10/16 06:46:44;;;;;;;10.25;4.55;;;;;;;;;;5033082;28;20050;-66
2021/10/16 06:49:34;;;;;;;16.10;5.35;;;;;;;;;;5032954;28;20049;-66
2021/10/16 06:52:19;;;;;;;14.90;4.82;;;;;;;;;;5032820;28;20169;-66
2021/10/16 06:55:04;;;;;;;13.00;5.00;;;;;;;;;;5032726;28;20124;-66
2021/10/16 06:57:50;;;;;;;11.48;4.25;;;;;;;;;;5032399;28;20081;-65
2021/10/16 07:00:36;;;;;;;15.50;4.47;;;;;;;;;;5033609;28;20053;-65
2021/10/16 07:03:33;;;;;;;14.90;4.47;;;;;;;;;;5032567;28;20053;-66
2021/10/16 07:06:19;;;;;;;14.52;4.50;;;;;;;;;;5032452;28;20527;-65
2021/10/16 07:09:04;;;;;;;13.05;4.82;;;;;;;;;;5018647;28;20120;-67
2021/10/16 07:11:49;;;;;;;10.18;3.65;;;;;;;;;;5041844;28;20049;-65
2021/10/16 07:14:35;;;;;;;11.30;3.65;;;;;;;;;;5052945;28;20049;-66
2021/10/16 07:17:24;;;;;;;12.02;3.58;;;;;;;;;;5032332;28;20053;-66
2021/10/16 07:20:09;;;;;;;11.25;3.63;;;;;;;;;;5033598;28;20054;-66
2021/10/16 07:22:55;;;;;;;9.25;3.50;;;;;;;;;;5033309;28;20061;-66
2021/10/16 07:25:40;;;;;;;11.90;3.95;;;;;;;;;;5030178;28;20061;-66
2021/10/16 07:28:26;;;;;;;10.15;4.03;;;;;;;;;;5033114;28;20049;-66
2021/10/16 07:31:11;;;;;;;12.50;4.40;;;;;;;;;;5033047;28;20046;-65
2021/10/16 07:33:59;;;;;;;13.85;4.05;;;;;;;;;;5045703;28;20466;-66
2021/10/16 07:36:45;;;;;;;9.88;3.65;;;;;;;;;;5031591;28;20053;-66
2021/10/16 07:39:30;;;;;;;10.65;3.88;;;;;;;;;;5033016;28;20617;-65
2021/10/16 07:42:15;;;;;;;12.30;3.97;;;;;;;;;;5032481;28;20057;-66
2021/10/16 07:45:00;;;;;;;15.07;4.20;;;;;;;;;;5045347;28;20049;-67
2021/10/16 07:47:45;;;;;;;7.88;3.72;;;;;;;;;;5032537;28;20121;-66
2021/10/16 07:50:31;;;;;;;13.35;4.25;;;;;;;;;;5032793;28;20053;-66
2021/10/16 07:53:16;;;;;;;12.90;4.50;;;;;;;;;;5032868;28;20446;-65
2021/10/16 07:56:01;;;;;;;11.63;3.78;;;;;;;;;;5032613;28;20057;-66
2021/10/16 07:58:47;;;;;;;14.95;3.90;;;;;;;;;;5031454;28;20053;-67
2021/10/16 08:01:31;;;;;;;11.55;4.03;;;;;;;;;;5032786;28;20124;-65
2021/10/16 08:04:17;;;;;;;12.80;3.70;;;;;;;;;;5032427;28;20470;-66
2021/10/16 08:07:02;;;;;;;18.42;4.57;;;;;;;;;;5031419;28;20050;-65
2021/10/16 08:09:48;;;;;;;12.73;3.15;;;;;;;;;;5031425;28;20057;-65
2021/10/16 08:12:33;;;;;;;7.07;3.28;;;;;;;;;;5032387;28;20528;-67
2021/10/16 08:15:18;;;;;;;10.15;3.60;;;;;;;;;;5031981;28;20499;-65
2021/10/16 08:18:04;;;;;;;11.45;4.63;;;;;;;;;;5032257;28;20415;-66
2021/10/16 08:20:49;;;;;;;12.90;4.18;;;;;;;;;;5032460;28;20081;-67
2021/10/16 08:23:34;;;;;;;20.27;4.03;;;;;;;;;;5032066;28;20049;-67
2021/10/16 08:26:20;;;;;;;10.60;3.38;;;;;;;;;;5032258;28;20108;-67
2021/10/16 08:29:05;;;;;;;14.52;4.22;;;;;;;;;;5032375;28;20613;-66
2021/10/16 08:31:50;;;;;;;11.55;3.45;;;;;;;;;;5032113;28;20124;-65
2021/10/16 08:34:36;;;;;;;8.35;3.30;;;;;;;;;;5031969;28;20049;-66
2021/10/16 08:37:21;;;;;;;14.00;4.57;;;;;;;;;;5031001;28;20057;-66
2021/10/16 08:40:06;;;;;;;14.43;3.25;;;;;;;;;;5030889;28;20061;-66
2021/10/16 08:42:51;;;;;;;12.88;4.05;;;;;;;;;;5031891;28;20053;-65
2021/10/16 08:45:37;;;;;;;12.95;3.42;;;;;;;;;;5031859;28;20054;-66
2021/10/16 08:48:22;;;;;;;12.68;4.38;;;;;;;;;;5032183;28;20061;-66
2021/10/16 08:51:07;;;;;;;9.88;3.05;;;;;;;;;;5031910;28;20128;-66
2021/10/16 08:53:53;;;;;;;8.90;3.40;;;;;;;;;;5034157;28;20053;-66
2021/10/16 08:56:38;;;;;;;10.38;3.38;;;;;;;;;;5036088;28;20051;-68
2021/10/16 08:59:23;;;;;;;12.07;3.35;;;;;;;;;;5034873;28;20061;-65
2021/10/16 09:02:09;;;;;;;9.98;3.67;;;;;;;;;;5035992;28;20120;-67
2021/10/16 09:05:09;;;;;;;14.85;3.63;;;;;;;;;;5034197;28;20057;-67
2021/10/16 09:07:54;;;;;;;9.65;4.00;;;;;;;;;;5035667;28;20049;-66
2021/10/16 09:10:39;;;;;;;7.82;3.28;;;;;;;;;;5043482;28;20112;-66
2021/10/16 09:13:25;;;;;;;11.20;3.97;;;;;;;;;;5042732;28;20091;-66
2021/10/16 09:16:19;;;;;;;11.45;3.15;;;;;;;;;;5058848;28;20045;-66
2021/10/16 09:19:08;;;;;;;8.80;2.90;;;;;;;;;;5045043;28;20111;-66
2021/10/16 09:22:01;;;;;;;9.98;3.15;;;;;;;;;;5041874;28;20061;-66
2021/10/16 09:24:47;;;;;;;13.23;3.70;;;;;;;;;;5045203;28;20056;-66
2021/10/16 09:27:32;;;;;;;11.50;3.08;;;;;;;;;;5041397;28;20049;-66
2021/10/16 09:30:17;;;;;;;11.55;4.43;;;;;;;;;;5055826;28;20045;-66
2021/10/16 09:33:03;;;;;;;8.15;3.28;;;;;;;;;;5052568;28;20061;-66
2021/10/16 09:35:48;;;;;;;10.82;3.53;;;;;;;;;;5038715;28;20499;-66
2021/10/16 09:38:42;;;;;;;10.90;4.07;;;;;;;;;;5045636;28;20049;-66
2021/10/16 09:41:31;;;;;;;9.55;3.08;;;;;;;;;;5044535;28;20053;-66
2021/10/16 09:44:20;;;;;;;14.63;3.63;;;;;;;;;;5040861;28;20068;-67
2021/10/16 09:47:15;;;;;;;10.25;4.43;;;;;;;;;;5042764;28;20430;-67
2021/10/16 09:50:06;;;;;;;10.88;3.28;;;;;;;;;;5045284;28;20076;-66
2021/10/16 09:52:52;;;;;;;14.85;3.30;;;;;;;;;;5043476;28;20049;-66
2021/10/16 09:55:37;;;;;;;8.32;3.17;;;;;;;;;;5044528;28;20044;-66
2021/10/16 09:58:23;;;;;;;12.20;3.30;;;;;;;;;;5041199;28;20112;-67
2021/10/16 10:01:09;;;;;;;12.90;4.05;;;;;;;;;;5042694;28;20120;-67
2021/10/16 10:03:55;;;;;;;14.98;4.60;;;;;;;;;;5043568;28;20057;-67
2021/10/16 10:06:40;;;;;;;9.90;3.00;;;;;;;;;;5042606;28;20516;-67
2021/10/16 10:09:25;;;;;;;13.50;4.47;;;;;;;;;;5041569;28;20049;-67
2021/10/16 10:12:11;;;;;;;14.52;4.28;;;;;;;;;;5055873;28;20049;-67
2021/10/16 10:14:56;;;;;;;11.45;3.50;;;;;;;;;;5041326;28;20053;-67
2021/10/16 10:17:41;;;;;;;10.68;3.65;;;;;;;;;;5043069;28;20053;-67
2021/10/16 10:20:26;;;;;;;11.98;3.53;;;;;;;;;;5027733;28;20474;-67
2021/10/16 10:23:21;;;;;;;8.57;3.10;;;;;;;;;;5021615;28;20049;-68
2021/10/16 10:26:42;;;;;;;8.98;3.60;;;;;;;;;;5044810;28;20410;-68
2021/10/16 10:29:28;;;;;;;12.93;2.92;;;;;;;;;;5003783;28;20100;-66
2021/10/16 10:32:19;;;;;;;9.68;3.50;;;;;;;;;;5033619;28;20501;-66
2021/10/16 10:35:05;;;;;;;16.55;3.97;;;;;;;;;;5033758;28;20053;-66
2021/10/16 10:37:53;;;;;;;13.52;2.97;;;;;;;;;;5032413;28;20171;-66
2021/10/16 10:40:38;;;;;;;13.93;3.25;;;;;;;;;;5052464;28;20053;-66
2021/10/16 10:43:39;;;;;;;12.88;3.17;;;;;;;;;;5043557;28;20049;-68
2021/10/16 10:46:25;;;;;;;8.77;3.65;;;;;;;;;;5041545;28;20049;-68
2021/10/16 10:49:12;;;;;;;11.27;3.15;;;;;;;;;;5040738;28;20053;-68
2021/10/16 10:51:59;;;;;;;12.30;3.65;;;;;;;;;;5033729;28;20049;-67
2021/10/16 10:55:00;;;;;;;13.40;3.50;;;;;;;;;;5033749;28;20049;-67
2021/10/16 10:57:59;;;;;;;15.10;3.63;;;;;;;;;;5035354;28;20044;-68
2021/10/16 11:00:44;;;;;;;10.63;4.15;;;;;;;;;;5047621;28;20045;-69
2021/10/16 11:03:30;;;;;;;10.65;3.50;;;;;;;;;;5046698;28;20120;-68
2021/10/16 11:06:17;;;;;;;7.97;2.80;;;;;;;;;;5051465;28;20049;-68
2021/10/16 11:09:15;;;;;;;11.32;3.60;;;;;;;;;;5047656;28;20462;-68
2021/10/16 11:12:00;;;;;;;11.15;3.95;;;;;;;;;;5052459;28;20053;-69
2021/10/16 11:14:46;;;;;;;10.15;3.00;;;;;;;;;;5047293;28;20073;-69
2021/10/16 11:17:35;;;;;;;14.00;3.72;;;;;;;;;;5081048;22;20514;-67
2021/10/16 11:20:29;;;;;;;11.48;3.47;;;;;;;;;;5084764;28;20118;-66
2021/10/16 11:23:21;;;;;;;10.32;3.30;;;;;;;;;;5093342;28;20048;-67
2021/10/16 11:26:07;;;;;;;13.15;3.45;;;;;;;;;;5093364;28;20048;-66
2021/10/16 11:28:52;;;;;;;8.57;3.28;;;;;;;;;;5073173;28;20048;-66
2021/10/16 11:31:37;;;;;;;12.00;3.10;;;;;;;;;;5072905;28;20056;-66
2021/10/16 11:34:22;;;;;;;10.93;4.15;;;;;;;;;;5072915;28;20084;-67
2021/10/16 11:37:08;;;;;;;17.75;3.33;;;;;;;;;;5072770;28;20065;-67
2021/10/16 11:40:00;;;;;;;9.02;3.03;;;;;;;;;;5072797;28;20056;-67
2021/10/16 11:42:52;;;;;;;12.10;3.00;;;;;;;;;;5073046;28;20418;-66
2021/10/16 11:45:37;;;;;;;9.23;2.83;;;;;;;;;;5072588;28;20056;-67
2021/10/16 11:48:23;;;;;;;10.63;3.30;;;;;;;;;;5072736;28;20091;-67
2021/10/16 11:51:09;;;;;;;9.63;2.75;;;;;;;;;;5073014;28;20052;-67
2021/10/16 11:53:54;;;;;;;11.30;2.60;;;;;;;;;;5072417;28;20053;-65
2021/10/16 11:56:39;;;;;;;10.80;3.10;;;;;;;;;;5072399;28;20049;-66
2021/10/16 11:59:25;;;;;;;17.25;3.53;;;;;;;;;;5072653;28;20052;-67
2021/10/16 12:02:10;;;;;;;7.47;3.38;;;;;;;;;;5072528;28;20410;-66
2021/10/16 12:05:08;;;;;;;13.65;3.28;;;;;;;;;;5072119;28;20053;-66
2021/10/16 12:07:54;;;;;;;13.88;2.92;;;;;;;;;;5059005;28;20044;-66
2021/10/16 12:10:39;;;;;;;17.55;3.13;;;;;;;;;;5064882;28;20040;-66
2021/10/16 12:13:36;;;;;;;12.10;3.30;;;;;;;;;;5061579;28;20056;-65
2021/10/16 12:16:21;;;;;;;7.57;3.00;;;;;;;;;;5060645;28;20049;-66
2021/10/16 12:19:11;;;;;;;12.35;3.05;;;;;;;;;;5060688;28;20061;-65
2021/10/16 12:21:56;;;;;;;11.65;3.45;;;;;;;;;;5059873;28;20052;-66
2021/10/16 12:24:41;;;;;;;14.57;3.70;;;;;;;;;;5059621;28;20049;-66
2021/10/16 12:27:27;;;;;;;11.75;3.17;;;;;;;;;;5072074;28;20052;-68
2021/10/16 12:30:12;;;;;;;10.55;3.22;;;;;;;;;;5071335;28;20040;-68
2021/10/16 12:33:10;;;;;;;11.55;2.90;;;;;;;;;;5072196;28;20052;-67
2021/10/16 12:36:02;;;;;;;10.80;3.17;;;;;;;;;;5072000;28;20049;-67
2021/10/16 12:38:47;;;;;;;11.45;2.75;;;;;;;;;;5072134;28;20049;-67
2021/10/16 12:41:33;;;;;;;10.95;2.63;;;;;;;;;;5071992;28;20091;-67
2021/10/16 12:44:20;;;;;;;11.43;2.90;;;;;;;;;;5071969;28;20056;-67
2021/10/16 12:47:14;;;;;;;13.27;2.95;;;;;;;;;;5071800;28;20499;-65
2021/10/16 12:50:02;;;;;;;12.88;3.08;;;;;;;;;;5051463;28;20052;-67
2021/10/16 12:52:48;;;;;;;13.43;3.17;;;;;;;;;;5051677;28;20421;-65
2021/10/16 12:55:33;;;;;;;13.05;3.08;;;;;;;;;;5049435;28;20049;-65
2021/10/16 12:58:18;;;;;;;8.95;3.30;;;;;;;;;;5050864;28;20060;-65
2021/10/16 13:01:03;;;;;;;14.05;3.00;;;;;;;;;;5051737;28;20057;-65
2021/10/16 13:03:49;;;;;;;9.10;2.85;;;;;;;;;;5051816;28;20057;-65
2021/10/16 13:06:34;;;;;;;10.77;3.50;;;;;;;;;;5050830;28;20057;-65
2021/10/16 13:09:19;;;;;;;8.60;2.65;;;;;;;;;;5051701;28;20057;-65
2021/10/16 13:12:05;;;;;;;6.68;2.33;;;;;;;;;;5051951;28;20060;-65
2021/10/16 13:14:50;;;;;;;9.52;3.30;;;;;;;;;;5060053;28;20410;-65
2021/10/16 13:17:35;;;;;;;8.57;2.70;;;;;;;;;;5053436;28;20049;-65
2021/10/16 13:20:20;;;;;;;10.15;2.50;;;;;;;;;;5051637;28;20053;-66
2021/10/16 13:23:06;;;;;;;9.60;2.67;;;;;;;;;;5051714;28;20049;-65
2021/10/16 13:25:51;;;;;;;9.18;2.78;;;;;;;;;;5051432;28;20044;-66
2021/10/16 13:28:36;;;;;;;12.10;2.85;;;;;;;;;;5051657;28;20049;-66
2021/10/16 13:31:22;;;;;;;9.38;3.45;;;;;;;;;;5051304;28;20582;-65
2021/10/16 13:34:07;;;;;;;10.65;3.20;;;;;;;;;;5051325;28;20053;-65
2021/10/16 13:36:52;;;;;;;11.35;3.38;;;;;;;;;;5051201;28;20052;-65
2021/10/16 13:39:38;;;;;;;13.25;2.97;;;;;;;;;;5053294;28;20632;-65
2021/10/16 13:42:23;;;;;;;9.32;2.83;;;;;;;;;;5055074;28;20048;-65
2021/10/16 13:45:09;;;;;;;11.00;2.47;;;;;;;;;;5054884;28;20415;-67
2021/10/16 13:47:55;;;;;;;10.77;2.95;;;;;;;;;;5055061;28;20182;-67
2021/10/16 13:50:40;;;;;;;10.95;2.97;;;;;;;;;;5054960;28;20053;-67
2021/10/16 13:53:25;;;;;;;13.55;3.33;;;;;;;;;;5054726;28;20049;-66
2021/10/16 13:56:11;;;;;;;10.68;3.47;;;;;;;;;;5055105;28;20049;-65
2021/10/16 13:58:56;;;;;;;8.70;2.97;;;;;;;;;;5054907;28;20053;-65
2021/10/16 14:01:41;;;;;;;10.20;2.72;;;;;;;;;;5054691;28;20048;-65
2021/10/16 14:04:28;;;;;;;11.23;3.17;;;;;;;;;;5054770;28;20057;-65
2021/10/16 14:07:13;;;;;;;14.60;3.20;;;;;;;;;;5054557;28;20049;-65
2021/10/16 14:09:58;;;;;;;8.48;3.00;;;;;;;;;;5054538;28;20418;-65
2021/10/16 14:12:43;;;;;;;15.10;4.15;;;;;;;;;;5054445;28;20529;-65
2021/10/16 14:15:29;;;;;;;12.82;3.10;;;;;;;;;;5054233;28;20410;-65
2021/10/16 14:18:14;;;;;;;12.93;3.30;;;;;;;;;;5054008;28;20084;-65
2021/10/16 14:21:00;;;;;;;12.23;2.88;;;;;;;;;;5054360;28;20057;-65
2021/10/16 14:23:45;;;;;;;13.73;3.30;;;;;;;;;;5054192;28;20049;-65
2021/10/16 14:26:30;;;;;;;12.63;3.47;;;;;;;;;;5054119;28;20053;-65
2021/10/16 14:29:15;;;;;;;12.10;4.10;;;;;;;;;;5054099;28;20052;-65
2021/10/16 14:32:01;;;;;;;10.95;3.22;;;;;;;;;;5054473;28;20056;-66
2021/10/16 14:34:46;;;;;;;10.98;3.13;;;;;;;;;;5053622;28;20048;-66
2021/10/16 14:37:31;;;;;;;6.85;2.47;;;;;;;;;;5054233;28;20052;-66
2021/10/16 14:40:17;;;;;;;12.20;3.50;;;;;;;;;;5053944;28;20127;-66
2021/10/16 14:43:02;;;;;;;10.30;2.90;;;;;;;;;;5054070;28;20048;-66
2021/10/16 14:45:47;;;;;;;14.20;3.58;;;;;;;;;;5053713;28;20084;-65
2021/10/16 14:48:32;;;;;;;11.77;2.85;;;;;;;;;;5052105;28;20503;-67
2021/10/16 14:51:21;;;;;;;20.63;3.95;;;;;;;;;;5052675;28;20072;-65
2021/10/16 14:54:06;;;;;;;12.43;3.42;;;;;;;;;;5053771;28;20123;-66
2021/10/16 14:56:52;;;;;;;11.57;3.47;;;;;;;;;;5053660;28;20081;-66
2021/10/16 14:59:37;;;;;;;10.13;2.63;;;;;;;;;;5053752;28;20059;-67
2021/10/16 15:02:22;;;;;;;10.95;2.95;;;;;;;;;;5053755;28;20053;-67
2021/10/16 15:05:08;;;;;;;11.23;2.80;;;;;;;;;;5058820;28;20049;-66
2021/10/16 15:07:53;;;;;;;8.52;2.72;;;;;;;;;;5057318;28;20044;-65
2021/10/16 15:10:39;;;;;;;7.53;2.50;;;;;;;;;;5060751;28;20049;-67
2021/10/16 15:13:24;;;;;;;11.20;3.40;;;;;;;;;;5061959;28;20049;-66
2021/10/16 15:16:09;;;;;;;12.15;3.40;;;;;;;;;;5059974;28;20057;-66
2021/10/16 15:18:55;;;;;;;11.52;3.08;;;;;;;;;;5056493;28;20052;-66
2021/10/16 15:21:40;;;;;;;14.27;3.53;;;;;;;;;;5062083;28;20056;-66
2021/10/16 15:24:25;;;;;;;14.32;3.90;;;;;;;;;;5072183;28;20056;-67
2021/10/16 15:27:10;;;;;;;11.63;2.95;;;;;;;;;;5072933;28;20482;-67
2021/10/16 15:29:56;;;;;;;11.95;3.17;;;;;;;;;;5073228;28;20052;-67
2021/10/16 15:32:41;;;;;;;9.38;3.05;;;;;;;;;;5072903;28;20054;-67
2021/10/16 15:35:27;;;;;;;11.43;3.47;;;;;;;;;;5072644;28;20453;-66
2021/10/16 15:38:12;;;;;;;12.43;3.40;;;;;;;;;;5072908;28;20041;-67
2021/10/16 15:40:57;;;;;;;11.50;3.47;;;;;;;;;;5071548;28;20048;-66
2021/10/16 15:43:43;;;;;;;8.98;3.00;;;;;;;;;;5072351;28;20049;-65
2021/10/16 15:46:28;;;;;;;14.15;3.55;;;;;;;;;;5072971;28;20052;-65
2021/10/16 15:49:14;;;;;;;10.23;3.22;;;;;;;;;;5072492;28;20088;-65
2021/10/16 15:51:59;;;;;;;11.73;2.95;;;;;;;;;;5062696;28;20060;-65
2021/10/16 15:54:44;;;;;;;10.50;3.38;;;;;;;;;;5041591;28;20558;-66
2021/10/16 15:57:30;;;;;;;14.45;3.58;;;;;;;;;;5051946;28;20068;-65
2021/10/16 16:00:15;;;;;;;11.13;3.25;;;;;;;;;;5051975;28;20048;-65
2021/10/16 16:03:00;;;;;;;10.48;3.75;;;;;;;;;;5052129;28;20053;-66
2021/10/16 16:05:45;;;;;;;16.77;3.45;;;;;;;;;;5052058;28;20083;-64
2021/10/16 16:08:31;;;;;;;9.48;3.10;;;;;;;;;;5052208;28;20521;-66
2021/10/16 16:11:16;;;;;;;12.88;3.65;;;;;;;;;;5052196;28;20041;-65
2021/10/16 16:14:01;;;;;;;13.65;3.15;;;;;;;;;;5052116;28;20053;-65
2021/10/16 16:16:46;;;;;;;10.35;3.42;;;;;;;;;;5051270;28;20119;-65
2021/10/16 16:19:32;;;;;;;14.60;3.72;;;;;;;;;;5052205;28;20124;-66
2021/10/16 16:22:17;;;;;;;11.60;3.15;;;;;;;;;;5052167;28;20124;-66
2021/10/16 16:25:03;;;;;;;8.68;2.95;;;;;;;;;;5051667;28;20049;-66